La Grange, Arkansas
Current Conditions -  °F | °C
As of 8:15 PM on Saturday 22 Nov 2014 (Local Time) from KUTA Reporting Station
Clear Clear  
Wind Chill: 11°   Ceiling: Unl
Heat Index: 11°   Visibility: 10mi
Dew Point:   Wind: 6mph
Humidity: 76%   Direction: 130°SE
Pressure: 30.02"   Gusts: NA
Location:  34.66°N, 90.73°W
Report Text: KUTA 230215Z AUTO 13005KT 10SM CLR 11/07 A3002 RMK AO2
Loading
Personal Weather Stations






























Interactive Weather Map New forecast layout! Learn more

10-Day Weather Forecast

Advertisements
Track Severe Weather on mobile